createdAt,value
2022-10-31T00:00:59.534Z,6.00
2022-10-31T00:01:59.527Z,5.60
2022-10-31T00:02:59.855Z,5.20
2022-10-31T00:03:59.434Z,5.90
2022-10-31T00:04:59.430Z,5.80
2022-10-31T00:05:59.452Z,5.90
2022-10-31T00:06:59.413Z,5.60
2022-10-31T00:07:59.407Z,5.80
2022-10-31T00:08:59.393Z,5.20
2022-10-31T00:09:59.411Z,5.30
2022-10-31T00:10:59.418Z,5.30
2022-10-31T00:11:59.375Z,5.80
2022-10-31T00:12:59.767Z,5.20
2022-10-31T00:13:59.358Z,5.80
2022-10-31T00:14:59.356Z,5.60
2022-10-31T00:15:59.348Z,5.60
2022-10-31T00:16:59.365Z,5.00
2022-10-31T00:17:59.603Z,5.20
2022-10-31T00:18:59.328Z,5.20
2022-10-31T00:19:59.322Z,5.20
2022-10-31T00:20:59.309Z,4.70
2022-10-31T00:21:59.330Z,5.10
2022-10-31T00:22:59.295Z,5.50
2022-10-31T00:23:59.291Z,5.40
2022-10-31T00:24:59.315Z,5.30
2022-10-31T00:25:59.298Z,5.30
2022-10-31T00:26:59.269Z,5.20
2022-10-31T00:27:59.465Z,5.20
2022-10-31T00:28:59.252Z,5.50
2022-10-31T00:29:59.243Z,5.10
2022-10-31T00:30:59.261Z,4.90
2022-10-31T00:31:59.224Z,5.50
2022-10-31T00:32:59.673Z,5.00
2022-10-31T00:33:59.222Z,4.80
2022-10-31T00:34:59.203Z,5.10
2022-10-31T00:35:59.219Z,4.70
2022-10-31T00:36:59.185Z,4.90
2022-10-31T00:37:59.177Z,4.70
2022-10-31T00:38:59.173Z,5.00
2022-10-31T00:39:59.166Z,5.40
2022-10-31T00:40:59.187Z,5.30
2022-10-31T00:41:59.151Z,4.90
2022-10-31T00:42:59.502Z,5.00
2022-10-31T00:43:59.137Z,4.80
2022-10-31T00:44:59.149Z,5.10
2022-10-31T00:45:59.147Z,5.00
2022-10-31T00:46:59.112Z,5.00
2022-10-31T00:47:59.482Z,4.80
2022-10-31T00:48:59.102Z,4.60
2022-10-31T00:49:59.089Z,4.90
2022-10-31T00:50:59.102Z,4.80
2022-10-31T00:51:59.079Z,4.90
2022-10-31T00:52:59.063Z,4.60
2022-10-31T00:53:59.054Z,4.50
2022-10-31T00:54:59.056Z,5.00
2022-10-31T00:55:59.069Z,5.00
2022-10-31T00:56:59.035Z,4.20
2022-10-31T00:57:59.338Z,4.20
2022-10-31T00:58:59.020Z,4.20
2022-10-31T00:59:59.012Z,4.00
2022-10-31T01:00:59.118Z,4.30
2022-10-31T01:01:59.137Z,4.30
2022-10-31T01:02:59.171Z,4.20
2022-10-31T01:03:58.996Z,4.20
2022-10-31T01:04:59.013Z,4.50
2022-10-31T01:05:59.112Z,4.00
2022-10-31T01:06:58.960Z,3.80
2022-10-31T01:07:58.956Z,3.80
2022-10-31T01:08:58.949Z,3.60
2022-10-31T01:09:58.941Z,3.70
2022-10-31T01:10:58.970Z,4.00
2022-10-31T01:11:58.941Z,3.90
2022-10-31T01:12:59.329Z,3.70
2022-10-31T01:13:58.910Z,3.80
2022-10-31T01:14:58.903Z,3.90
2022-10-31T01:15:58.896Z,3.60
2022-10-31T01:16:58.914Z,4.00
2022-10-31T01:17:59.194Z,3.80
2022-10-31T01:18:58.877Z,5.10
2022-10-31T01:19:58.871Z,4.10
2022-10-31T01:20:58.864Z,4.20
2022-10-31T01:21:58.881Z,4.10
2022-10-31T01:22:58.846Z,4.50
2022-10-31T01:23:58.837Z,4.30
2022-10-31T01:24:58.832Z,4.70
2022-10-31T01:25:58.822Z,4.40
2022-10-31T01:26:58.843Z,4.40
2022-10-31T01:27:59.162Z,4.60
2022-10-31T01:28:58.801Z,4.90
2022-10-31T01:29:58.795Z,4.80
2022-10-31T01:30:58.816Z,4.30
2022-10-31T01:31:58.777Z,4.70
2022-10-31T01:32:59.373Z,5.20
2022-10-31T01:33:58.767Z,4.80
2022-10-31T01:34:58.760Z,4.50
2022-10-31T01:35:58.805Z,4.70
2022-10-31T01:36:58.742Z,4.80
2022-10-31T01:37:58.736Z,4.60
2022-10-31T01:38:58.731Z,4.50
2022-10-31T01:39:58.719Z,4.90
2022-10-31T01:40:58.742Z,4.50
2022-10-31T01:41:58.699Z,4.70
2022-10-31T01:42:58.983Z,4.60
2022-10-31T01:43:58.687Z,4.30
2022-10-31T01:45:33.054Z,4.50
2022-10-31T01:45:58.682Z,4.10
2022-10-31T01:46:58.695Z,4.50
2022-10-31T01:47:59.118Z,3.90
2022-10-31T01:48:58.659Z,3.80
2022-10-31T01:49:58.655Z,3.70
2022-10-31T01:50:58.637Z,4.00
2022-10-31T01:51:58.676Z,3.90
2022-10-31T01:52:58.630Z,3.70
2022-10-31T01:53:58.612Z,3.80
2022-10-31T01:54:58.612Z,3.70
2022-10-31T01:55:58.601Z,3.70
2022-10-31T01:56:58.662Z,3.60
2022-10-31T01:57:59.025Z,3.90
2022-10-31T01:58:58.582Z,3.70
2022-10-31T01:59:58.574Z,4.30
2022-10-31T02:01:00.548Z,4.00
2022-10-31T02:01:58.759Z,4.20
2022-10-31T02:02:58.903Z,4.10
2022-10-31T02:03:58.557Z,4.00
2022-10-31T02:04:58.541Z,4.00
2022-10-31T02:05:58.525Z,3.90
2022-10-31T02:06:58.574Z,4.00
2022-10-31T02:07:58.515Z,4.60
2022-10-31T02:08:58.506Z,4.10
2022-10-31T02:09:58.489Z,4.10
2022-10-31T02:10:58.495Z,4.30
2022-10-31T02:11:58.502Z,4.00
2022-10-31T02:12:58.760Z,4.10
2022-10-31T02:13:58.600Z,4.20
2022-10-31T02:14:58.448Z,4.30
2022-10-31T02:15:58.449Z,4.10
2022-10-31T02:16:58.462Z,4.20
2022-10-31T02:17:58.824Z,4.00
2022-10-31T02:18:58.428Z,4.20
2022-10-31T02:19:58.415Z,4.30
2022-10-31T02:20:58.440Z,4.70
2022-10-31T02:21:58.436Z,4.20
2022-10-31T02:22:58.399Z,3.90
2022-10-31T02:23:58.379Z,4.50
2022-10-31T02:24:58.381Z,4.20
2022-10-31T02:25:58.394Z,4.00
2022-10-31T02:26:58.365Z,4.20
2022-10-31T02:27:58.635Z,4.30
2022-10-31T02:28:58.348Z,4.60
2022-10-31T02:29:58.341Z,4.30
2022-10-31T02:30:58.357Z,4.30
2022-10-31T02:31:58.330Z,4.10
2022-10-31T02:32:58.564Z,4.70
2022-10-31T02:33:58.305Z,4.00
2022-10-31T02:34:58.302Z,4.10
2022-10-31T02:35:58.294Z,4.50
2022-10-31T02:36:58.318Z,4.40
2022-10-31T02:37:58.295Z,3.90
2022-10-31T02:38:58.265Z,4.00
2022-10-31T02:39:58.287Z,4.00
2022-10-31T02:40:58.293Z,4.20
2022-10-31T02:41:58.252Z,4.20
2022-10-31T02:42:58.758Z,3.80
2022-10-31T02:43:58.236Z,4.10
2022-10-31T02:44:58.246Z,4.00
2022-10-31T02:45:58.251Z,4.50
2022-10-31T02:46:58.212Z,4.00
2022-10-31T02:47:58.422Z,3.80
2022-10-31T02:48:58.195Z,3.90
2022-10-31T02:49:58.194Z,4.10
2022-10-31T02:50:58.199Z,3.70
2022-10-31T02:51:58.199Z,3.90
2022-10-31T02:52:58.159Z,3.40
2022-10-31T02:53:58.171Z,3.90
2022-10-31T02:54:58.146Z,3.80
2022-10-31T02:55:58.143Z,4.20
2022-10-31T02:56:58.166Z,3.90
2022-10-31T02:57:58.641Z,3.80
2022-10-31T02:58:58.132Z,3.80
2022-10-31T02:59:58.115Z,3.80
2022-10-31T03:00:58.147Z,4.00
2022-10-31T03:01:58.227Z,4.00
2022-10-31T03:02:58.594Z,3.90
2022-10-31T03:03:58.077Z,3.80
2022-10-31T03:04:58.068Z,3.80
2022-10-31T03:05:58.107Z,3.60
2022-10-31T03:06:58.071Z,3.60
2022-10-31T03:07:58.056Z,3.50
2022-10-31T03:08:58.041Z,3.80
2022-10-31T03:09:58.040Z,3.30
2022-10-31T03:10:58.028Z,2.90
2022-10-31T03:11:58.059Z,2.70
2022-10-31T03:12:58.017Z,2.70
2022-10-31T03:13:58.006Z,2.40
2022-10-31T03:14:58.006Z,2.70
2022-10-31T03:15:58.016Z,2.50
2022-10-31T03:16:58.008Z,2.80
2022-10-31T03:17:58.179Z,2.80
2022-10-31T03:18:57.964Z,2.60
2022-10-31T03:19:57.962Z,2.20
2022-10-31T03:20:57.974Z,2.30
2022-10-31T03:21:57.988Z,3.00
2022-10-31T03:22:57.953Z,2.40
2022-10-31T03:23:57.935Z,2.90
2022-10-31T03:24:57.926Z,2.70
2022-10-31T03:25:57.920Z,2.90
2022-10-31T03:26:57.947Z,2.50
2022-10-31T03:27:58.459Z,2.70
2022-10-31T03:28:57.905Z,2.60
2022-10-31T03:29:57.907Z,2.30
2022-10-31T03:30:57.883Z,2.70
2022-10-31T03:31:57.913Z,2.50
2022-10-31T03:32:58.217Z,3.30
2022-10-31T03:33:57.869Z,3.30
2022-10-31T03:34:57.861Z,3.50
2022-10-31T03:35:57.850Z,3.30
2022-10-31T03:36:57.860Z,3.40
2022-10-31T03:37:57.836Z,4.30
2022-10-31T03:38:57.847Z,3.60
2022-10-31T03:39:57.830Z,3.70
2022-10-31T03:40:57.812Z,3.70
2022-10-31T03:41:57.829Z,3.90
2022-10-31T03:42:58.180Z,4.10
2022-10-31T03:43:57.796Z,4.10
2022-10-31T03:44:57.776Z,4.00
2022-10-31T03:45:57.785Z,4.00
2022-10-31T03:46:57.786Z,3.80
2022-10-31T03:47:58.023Z,3.90
2022-10-31T03:48:57.744Z,3.80
2022-10-31T03:49:57.740Z,3.60
2022-10-31T03:50:57.747Z,3.80
2022-10-31T03:51:57.760Z,4.30
2022-10-31T03:52:57.714Z,3.80
2022-10-31T03:53:57.716Z,3.80
2022-10-31T03:54:57.705Z,3.80
2022-10-31T03:55:57.701Z,3.90
2022-10-31T03:56:57.713Z,3.90
2022-10-31T03:57:58.105Z,3.70
2022-10-31T03:58:57.674Z,3.90
2022-10-31T03:59:57.684Z,3.50
2022-10-31T04:00:57.713Z,3.60
2022-10-31T04:01:57.843Z,3.90
2022-10-31T04:02:57.946Z,3.80
2022-10-31T04:03:57.642Z,3.70
2022-10-31T04:04:57.627Z,3.40
2022-10-31T04:05:57.623Z,3.60
2022-10-31T04:06:57.637Z,3.20
2022-10-31T04:07:57.597Z,3.60
2022-10-31T04:08:58.632Z,3.50
2022-10-31T04:09:57.591Z,3.80
2022-10-31T04:10:57.587Z,3.50
2022-10-31T04:11:57.626Z,3.90
2022-10-31T04:12:57.930Z,3.80
2022-10-31T04:13:57.554Z,3.80
2022-10-31T04:14:57.550Z,3.70
2022-10-31T04:15:57.549Z,3.70
2022-10-31T04:16:57.594Z,3.70
2022-10-31T04:17:57.851Z,3.50
2022-10-31T04:18:57.530Z,3.30
2022-10-31T04:19:57.651Z,3.60
2022-10-31T04:20:57.499Z,3.60
2022-10-31T04:21:57.543Z,3.70
2022-10-31T04:22:57.495Z,3.90
2022-10-31T04:23:57.493Z,3.70
2022-10-31T04:24:57.466Z,3.70
2022-10-31T04:25:57.463Z,3.40
2022-10-31T04:26:57.481Z,3.80
2022-10-31T04:27:57.860Z,3.40
2022-10-31T04:28:57.441Z,3.90
2022-10-31T04:29:57.430Z,3.70
2022-10-31T04:30:57.423Z,4.00
2022-10-31T04:31:57.435Z,3.90
2022-10-31T04:32:57.701Z,4.00
2022-10-31T04:33:57.402Z,4.10
2022-10-31T04:34:57.392Z,4.10
2022-10-31T04:35:57.383Z,4.10
2022-10-31T04:36:57.407Z,4.10
2022-10-31T04:37:57.366Z,4.00
2022-10-31T04:38:57.374Z,3.60
2022-10-31T04:39:57.372Z,3.60
2022-10-31T04:40:57.354Z,3.50
2022-10-31T04:41:57.365Z,3.40
2022-10-31T04:42:57.522Z,3.60
2022-10-31T04:43:57.322Z,3.70
2022-10-31T04:44:57.350Z,3.60
2022-10-31T04:45:57.322Z,3.30
2022-10-31T04:46:57.331Z,2.70
2022-10-31T04:47:57.532Z,2.70
2022-10-31T04:48:57.284Z,2.80
2022-10-31T04:49:57.275Z,3.10
2022-10-31T04:50:57.273Z,2.80
2022-10-31T04:51:57.312Z,2.50
2022-10-31T04:52:57.285Z,2.10
2022-10-31T04:53:57.251Z,1.90
2022-10-31T04:54:57.246Z,1.90
2022-10-31T04:55:57.228Z,2.30
2022-10-31T04:56:57.244Z,2.20
2022-10-31T04:57:57.408Z,1.90
2022-10-31T04:58:57.204Z,2.30
2022-10-31T04:59:57.197Z,1.80
2022-10-31T05:00:57.266Z,2.20
2022-10-31T05:01:57.363Z,2.00
2022-10-31T05:02:57.391Z,2.40
2022-10-31T05:03:57.166Z,2.00
2022-10-31T05:04:57.152Z,2.20
2022-10-31T05:05:57.171Z,2.00
2022-10-31T05:06:57.165Z,2.50
2022-10-31T05:07:57.141Z,2.00
2022-10-31T05:08:57.135Z,3.70
2022-10-31T05:09:57.122Z,2.70
2022-10-31T05:11:01.554Z,3.10
2022-10-31T05:11:58.150Z,3.30
2022-10-31T05:12:57.364Z,3.30
2022-10-31T05:13:57.094Z,2.90
2022-10-31T05:14:57.083Z,3.20
2022-10-31T05:15:57.075Z,3.60
2022-10-31T05:16:57.117Z,3.60
2022-10-31T05:17:57.372Z,3.50
2022-10-31T05:18:57.053Z,3.70
2022-10-31T05:19:57.081Z,3.50
2022-10-31T05:20:57.042Z,3.20
2022-10-31T05:21:57.061Z,3.90
2022-10-31T05:22:57.010Z,3.30
2022-10-31T05:23:57.018Z,3.80
2022-10-31T05:24:57.011Z,3.70
2022-10-31T05:25:56.994Z,3.90
2022-10-31T05:26:57.032Z,3.10
2022-10-31T05:27:57.234Z,3.60
2022-10-31T05:28:56.975Z,3.50
2022-10-31T05:29:57.041Z,3.40
2022-10-31T05:30:56.950Z,3.80
2022-10-31T05:31:56.976Z,3.40
2022-10-31T05:32:57.205Z,3.70
2022-10-31T05:33:56.948Z,3.70
2022-10-31T05:34:56.966Z,3.40
2022-10-31T05:35:56.926Z,3.70
2022-10-31T05:36:56.950Z,3.60
2022-10-31T05:37:56.899Z,4.20
2022-10-31T05:38:56.907Z,3.70
2022-10-31T05:39:56.928Z,3.50
2022-10-31T05:40:56.873Z,3.60
2022-10-31T05:41:56.904Z,3.70
2022-10-31T05:42:57.157Z,3.60
2022-10-31T05:43:56.919Z,4.20
2022-10-31T05:44:56.862Z,3.50
2022-10-31T05:45:56.859Z,3.60
2022-10-31T05:46:56.892Z,3.50
2022-10-31T05:47:57.098Z,3.70
2022-10-31T05:49:00.218Z,3.70
2022-10-31T05:49:58.815Z,3.50
2022-10-31T05:50:56.857Z,3.30
2022-10-31T05:51:56.830Z,3.50
2022-10-31T05:52:56.804Z,3.40
2022-10-31T05:53:56.790Z,3.50
2022-10-31T05:54:56.775Z,3.10
2022-10-31T05:55:56.775Z,3.70
2022-10-31T05:56:56.789Z,3.40
2022-10-31T05:57:56.898Z,3.30
2022-10-31T05:58:56.750Z,3.40
2022-10-31T05:59:56.748Z,3.50
2022-10-31T06:00:56.730Z,3.30
2022-10-31T06:01:56.855Z,3.70
2022-10-31T06:02:56.804Z,3.90
2022-10-31T06:03:56.737Z,3.60
2022-10-31T06:04:56.781Z,3.50
2022-10-31T06:05:56.701Z,3.90
2022-10-31T06:06:56.715Z,4.10
2022-10-31T06:07:56.923Z,3.80
2022-10-31T06:08:57.685Z,3.70
2022-10-31T06:09:56.670Z,3.80
2022-10-31T06:10:56.686Z,3.50
2022-10-31T06:11:56.709Z,3.10
2022-10-31T06:12:56.673Z,3.70
2022-10-31T06:13:56.641Z,3.10
2022-10-31T06:14:56.620Z,3.60
2022-10-31T06:15:56.621Z,2.80
2022-10-31T06:16:56.692Z,3.20
2022-10-31T06:17:56.724Z,3.30
2022-10-31T06:18:56.593Z,3.00
2022-10-31T06:19:56.587Z,3.60
2022-10-31T06:20:56.612Z,3.30
2022-10-31T06:21:56.597Z,4.20
2022-10-31T06:22:56.791Z,4.40
2022-10-31T06:23:56.564Z,4.70
2022-10-31T06:24:56.576Z,5.30
2022-10-31T06:25:56.546Z,6.70
2022-10-31T06:26:56.629Z,7.20
2022-10-31T06:27:56.845Z,6.50
2022-10-31T06:29:00.032Z,8.60
2022-10-31T06:29:57.520Z,8.70
2022-10-31T06:30:56.525Z,9.80
2022-10-31T06:31:56.495Z,9.00
2022-10-31T06:32:56.536Z,8.30
2022-10-31T06:33:56.489Z,8.40
2022-10-31T06:34:56.481Z,8.20
2022-10-31T06:35:56.471Z,7.30
2022-10-31T06:36:56.466Z,8.10
2022-10-31T06:37:56.498Z,6.90
2022-10-31T06:38:56.481Z,6.30
2022-10-31T06:39:56.439Z,5.60
2022-10-31T06:40:56.440Z,5.50
2022-10-31T06:41:56.425Z,5.20
2022-10-31T06:42:56.439Z,5.00
2022-10-31T06:43:56.419Z,5.20
2022-10-31T06:44:56.431Z,5.00
2022-10-31T06:45:56.425Z,5.60
2022-10-31T06:46:56.386Z,5.40
2022-10-31T06:48:15.893Z,5.50
2022-10-31T06:48:58.364Z,5.20
2022-10-31T06:49:56.394Z,4.30
2022-10-31T06:50:59.614Z,4.10
2022-10-31T06:51:57.336Z,4.10
2022-10-31T06:52:56.445Z,4.50
2022-10-31T06:53:56.338Z,4.40
2022-10-31T06:54:56.339Z,4.20
2022-10-31T06:55:56.313Z,4.40
2022-10-31T06:56:56.309Z,4.20
2022-10-31T06:57:58.873Z,4.00
2022-10-31T06:58:57.301Z,4.10
2022-10-31T06:59:56.387Z,4.30
2022-10-31T07:00:56.324Z,3.80
2022-10-31T07:01:56.523Z,4.30
2022-10-31T07:02:56.512Z,4.10
2022-10-31T07:03:56.280Z,3.90
2022-10-31T07:04:56.264Z,4.60
2022-10-31T07:05:56.256Z,4.50
2022-10-31T07:06:56.246Z,4.10
2022-10-31T07:07:56.249Z,4.10
2022-10-31T07:08:56.212Z,4.20
2022-10-31T07:09:56.210Z,3.60
2022-10-31T07:10:56.249Z,3.60
2022-10-31T07:11:56.196Z,3.80
2022-10-31T07:12:56.339Z,3.70
2022-10-31T07:13:56.176Z,4.20
2022-10-31T07:14:56.163Z,4.30
2022-10-31T07:15:56.160Z,4.20
2022-10-31T07:16:56.155Z,4.30
2022-10-31T07:17:56.185Z,4.40
2022-10-31T07:18:56.174Z,4.40
2022-10-31T07:19:56.136Z,4.50
2022-10-31T07:20:56.117Z,4.50
2022-10-31T07:21:56.121Z,3.90
2022-10-31T07:22:56.158Z,4.10
2022-10-31T07:23:56.089Z,4.20
2022-10-31T07:24:56.121Z,4.00
2022-10-31T07:25:56.107Z,4.00
2022-10-31T07:26:56.124Z,4.20
2022-10-31T07:27:56.124Z,3.90
2022-10-31T07:28:56.207Z,4.50
2022-10-31T07:29:56.071Z,4.30
2022-10-31T07:30:56.070Z,4.30
2022-10-31T07:31:56.039Z,4.00
2022-10-31T07:32:56.074Z,4.10
2022-10-31T07:33:56.020Z,4.60
2022-10-31T07:34:56.019Z,4.00
2022-10-31T07:35:56.005Z,4.00
2022-10-31T07:36:56.000Z,4.50
2022-10-31T07:37:56.038Z,4.20
2022-10-31T07:38:56.013Z,4.40
2022-10-31T07:39:55.972Z,4.60
2022-10-31T07:40:55.984Z,4.70
2022-10-31T07:41:55.967Z,4.80
2022-10-31T07:42:56.009Z,4.50
2022-10-31T07:43:55.959Z,3.80
2022-10-31T07:44:57.703Z,4.20
2022-10-31T07:46:30.152Z,4.50
2022-10-31T07:46:55.924Z,4.50
2022-10-31T07:47:55.911Z,3.60
2022-10-31T07:48:55.939Z,4.00
2022-10-31T07:49:55.907Z,4.20
2022-10-31T07:50:55.888Z,4.10
2022-10-31T07:51:55.889Z,4.50
2022-10-31T07:52:55.890Z,4.30
2022-10-31T07:53:55.910Z,3.80
2022-10-31T07:54:55.859Z,3.60
2022-10-31T07:55:55.843Z,3.90
2022-10-31T07:56:56.883Z,3.60
2022-10-31T07:57:55.858Z,3.70
2022-10-31T07:58:55.859Z,4.40
2022-10-31T07:59:55.819Z,4.40
2022-10-31T08:00:55.910Z,4.10
2022-10-31T08:01:55.829Z,4.30
2022-10-31T08:02:55.801Z,4.50
2022-10-31T08:03:55.818Z,4.70
2022-10-31T08:04:58.582Z,4.40
2022-10-31T08:05:56.774Z,4.50
2022-10-31T08:06:55.832Z,4.30
2022-10-31T08:07:55.759Z,4.50
2022-10-31T08:08:55.775Z,4.40
2022-10-31T08:09:55.746Z,4.70
2022-10-31T08:10:55.767Z,4.60
2022-10-31T08:11:55.756Z,4.40
2022-10-31T08:12:55.777Z,4.70
2022-10-31T08:13:55.717Z,4.20
2022-10-31T08:14:55.701Z,4.50
2022-10-31T08:15:55.693Z,4.80
2022-10-31T08:16:55.689Z,4.40
2022-10-31T08:17:55.731Z,5.00
2022-10-31T08:18:55.678Z,4.60
2022-10-31T08:19:55.670Z,4.70
2022-10-31T08:20:55.663Z,4.60
2022-10-31T08:21:55.657Z,4.30
2022-10-31T08:22:55.676Z,4.70
2022-10-31T08:23:55.639Z,4.80
2022-10-31T08:24:55.638Z,4.60
2022-10-31T08:25:55.630Z,4.50
2022-10-31T08:26:55.614Z,4.50
2022-10-31T08:27:55.639Z,4.50
2022-10-31T08:28:55.715Z,4.50
2022-10-31T08:29:55.591Z,4.50
2022-10-31T08:30:55.592Z,4.90
2022-10-31T08:31:55.587Z,4.70
2022-10-31T08:32:55.569Z,5.20
2022-10-31T08:33:55.602Z,5.40
2022-10-31T08:34:55.556Z,4.80
2022-10-31T08:35:55.563Z,4.80
2022-10-31T08:36:55.552Z,4.90
2022-10-31T08:37:55.539Z,5.00
2022-10-31T08:39:00.656Z,4.80
2022-10-31T08:39:57.535Z,4.50
2022-10-31T08:40:55.548Z,4.70
2022-10-31T08:41:55.512Z,4.90
2022-10-31T08:42:55.506Z,4.90
2022-10-31T08:43:55.523Z,5.30
2022-10-31T08:44:55.531Z,5.10
2022-10-31T08:45:55.485Z,5.20
2022-10-31T08:46:55.488Z,5.60
2022-10-31T08:47:55.465Z,4.90
2022-10-31T08:48:55.481Z,5.00
2022-10-31T08:49:55.471Z,5.00
2022-10-31T08:50:55.445Z,5.10
2022-10-31T08:51:55.447Z,4.90
2022-10-31T08:53:06.671Z,5.40
2022-10-31T08:53:57.422Z,5.40
2022-10-31T08:54:55.413Z,5.20
2022-10-31T08:55:55.416Z,5.50
2022-10-31T08:56:55.416Z,5.50
2022-10-31T08:57:55.423Z,5.40
2022-10-31T08:58:55.387Z,5.60
2022-10-31T08:59:55.373Z,5.20
2022-10-31T09:00:55.433Z,5.30
2022-10-31T09:01:55.456Z,5.50
2022-10-31T09:02:55.348Z,5.80
2022-10-31T09:03:55.374Z,5.60
2022-10-31T09:04:55.349Z,5.20
2022-10-31T09:05:55.383Z,5.40
2022-10-31T09:07:20.097Z,4.90
2022-10-31T09:07:59.980Z,5.10
2022-10-31T09:08:56.330Z,4.60
2022-10-31T09:09:55.294Z,5.10
2022-10-31T09:10:55.285Z,4.70
2022-10-31T09:11:55.287Z,4.80
2022-10-31T09:12:55.265Z,4.90
2022-10-31T09:13:55.332Z,4.80
2022-10-31T09:14:55.262Z,4.50
2022-10-31T09:15:55.268Z,4.50
2022-10-31T09:16:55.251Z,4.80
2022-10-31T09:17:55.232Z,4.70
2022-10-31T09:18:55.318Z,4.70
2022-10-31T09:19:55.218Z,5.00
2022-10-31T09:20:55.209Z,5.10
2022-10-31T09:21:55.212Z,4.60
2022-10-31T09:22:55.236Z,5.10
2022-10-31T09:23:55.209Z,4.60
2022-10-31T09:24:55.231Z,4.70
2022-10-31T09:25:55.204Z,4.30
2022-10-31T09:26:55.164Z,4.90
2022-10-31T09:27:55.186Z,5.20
2022-10-31T09:28:55.169Z,5.10
2022-10-31T09:29:55.145Z,5.10
2022-10-31T09:30:55.142Z,5.50
2022-10-31T09:31:55.121Z,5.10
2022-10-31T09:32:55.115Z,5.40
2022-10-31T09:33:55.145Z,5.60
2022-10-31T09:34:55.101Z,4.80
2022-10-31T09:35:55.118Z,5.10
2022-10-31T09:36:55.102Z,4.90
2022-10-31T09:37:55.077Z,5.10
2022-10-31T09:38:55.108Z,5.00
2022-10-31T09:39:55.073Z,4.70
2022-10-31T09:40:55.060Z,5.10
2022-10-31T09:41:57.222Z,4.70
2022-10-31T09:42:55.043Z,5.10
2022-10-31T09:43:55.156Z,5.40
2022-10-31T09:44:55.029Z,5.10
2022-10-31T09:45:55.023Z,5.00
2022-10-31T09:46:55.014Z,4.70
2022-10-31T09:47:55.006Z,4.70
2022-10-31T09:48:55.023Z,4.40
2022-10-31T09:49:55.045Z,4.80
2022-10-31T09:50:54.993Z,4.60
2022-10-31T09:51:54.976Z,4.50
2022-10-31T09:52:54.967Z,4.90
2022-10-31T09:53:54.983Z,4.60
2022-10-31T09:54:54.960Z,5.00
2022-10-31T09:55:54.972Z,4.80
2022-10-31T09:56:54.940Z,4.90
2022-10-31T09:57:54.935Z,4.80
2022-10-31T09:58:54.968Z,4.80
2022-10-31T09:59:54.922Z,4.50
2022-10-31T10:00:54.937Z,4.70
2022-10-31T10:01:54.974Z,4.90
2022-10-31T10:02:54.897Z,4.40
2022-10-31T10:03:54.916Z,4.70
2022-10-31T10:04:54.882Z,5.00
2022-10-31T10:05:54.889Z,4.70
2022-10-31T10:06:54.877Z,4.70
2022-10-31T10:07:54.856Z,4.40
2022-10-31T10:08:54.876Z,5.30
2022-10-31T10:09:55.851Z,5.20
2022-10-31T10:10:54.833Z,4.50
2022-10-31T10:11:54.832Z,5.10
2022-10-31T10:12:54.815Z,4.60
2022-10-31T10:13:55.860Z,4.90
2022-10-31T10:14:54.800Z,4.80
2022-10-31T10:15:54.794Z,4.60
2022-10-31T10:16:54.785Z,5.00
2022-10-31T10:17:54.782Z,4.60
2022-10-31T10:18:54.800Z,4.70
2022-10-31T10:19:54.764Z,4.70
2022-10-31T10:20:54.761Z,4.90
2022-10-31T10:21:54.752Z,4.80
2022-10-31T10:22:54.745Z,4.70
2022-10-31T10:23:54.738Z,4.90
2022-10-31T10:24:54.773Z,5.10
2022-10-31T10:25:54.770Z,4.90
2022-10-31T10:26:54.713Z,4.90
2022-10-31T10:27:54.707Z,5.10
2022-10-31T10:28:54.697Z,5.20
2022-10-31T10:29:54.737Z,5.30
2022-10-31T10:30:54.681Z,5.30
2022-10-31T10:31:54.668Z,5.00
2022-10-31T10:32:54.675Z,5.00
2022-10-31T10:33:54.656Z,5.40
2022-10-31T10:34:54.669Z,5.00
2022-10-31T10:35:54.639Z,5.00
2022-10-31T10:36:54.633Z,5.70
2022-10-31T10:37:54.629Z,5.40
2022-10-31T10:38:54.624Z,5.50
2022-10-31T10:39:54.633Z,5.50
2022-10-31T10:40:54.600Z,5.90
2022-10-31T10:41:54.605Z,5.50
2022-10-31T10:42:54.596Z,5.40
2022-10-31T10:43:54.589Z,5.70
2022-10-31T10:44:54.608Z,5.60
2022-10-31T10:45:54.572Z,5.80
2022-10-31T10:46:54.557Z,5.40
2022-10-31T10:47:54.544Z,5.80
2022-10-31T10:48:54.535Z,5.00
2022-10-31T10:49:55.562Z,5.00
2022-10-31T10:50:54.530Z,4.90
2022-10-31T10:52:07.415Z,4.70
2022-10-31T10:52:56.520Z,4.80
2022-10-31T10:53:54.504Z,5.00
2022-10-31T10:54:54.536Z,5.10
2022-10-31T10:55:54.516Z,4.80
2022-10-31T10:56:54.487Z,5.00
2022-10-31T10:57:54.473Z,5.30
2022-10-31T10:58:54.472Z,4.70
2022-10-31T10:59:54.483Z,5.00
2022-10-31T11:00:54.555Z,4.70
2022-10-31T11:01:54.447Z,5.10
2022-10-31T11:02:54.437Z,5.30
2022-10-31T11:03:54.436Z,5.10
2022-10-31T11:04:54.504Z,5.30
2022-10-31T11:05:54.417Z,5.70
2022-10-31T11:06:54.409Z,6.50
2022-10-31T11:07:54.411Z,6.00
2022-10-31T11:08:54.417Z,5.90
2022-10-31T11:09:54.478Z,5.70
2022-10-31T11:10:54.374Z,5.70
2022-10-31T11:11:54.391Z,5.50
2022-10-31T11:12:54.363Z,5.50
2022-10-31T11:13:54.371Z,5.60
2022-10-31T11:14:54.381Z,5.50
2022-10-31T11:15:54.363Z,5.80
2022-10-31T11:16:54.326Z,5.70
2022-10-31T11:17:54.320Z,6.00
2022-10-31T11:18:54.313Z,5.70
2022-10-31T11:19:54.333Z,6.30
2022-10-31T11:20:54.309Z,6.20
2022-10-31T11:21:54.529Z,6.50
2022-10-31T11:22:54.296Z,5.90
2022-10-31T11:23:54.279Z,6.40
2022-10-31T11:24:54.314Z,6.40
2022-10-31T11:25:54.265Z,6.20
2022-10-31T11:26:54.254Z,6.30
2022-10-31T11:27:54.247Z,6.20
2022-10-31T11:28:54.233Z,6.00
2022-10-31T11:29:58.299Z,5.90
2022-10-31T11:30:56.232Z,6.40
2022-10-31T11:31:54.223Z,5.90
2022-10-31T11:32:54.233Z,6.40
2022-10-31T11:33:54.200Z,5.90
2022-10-31T11:34:54.217Z,6.00
2022-10-31T11:35:57.013Z,6.20
2022-10-31T11:36:54.177Z,5.60
2022-10-31T11:37:54.183Z,5.30
2022-10-31T11:38:54.158Z,6.40
2022-10-31T11:39:54.542Z,6.10
2022-10-31T11:40:54.148Z,5.80
2022-10-31T11:41:54.139Z,6.60
2022-10-31T11:42:54.144Z,6.10
2022-10-31T11:43:54.122Z,6.50
2022-10-31T11:44:54.484Z,5.90
2022-10-31T11:45:54.106Z,6.00
2022-10-31T11:46:54.089Z,6.40
2022-10-31T11:47:59.160Z,6.30
2022-10-31T11:48:55.129Z,6.20
2022-10-31T11:49:54.710Z,6.60
2022-10-31T11:50:54.072Z,6.60
2022-10-31T11:51:54.079Z,6.40
2022-10-31T11:53:56.949Z,6.40
2022-10-31T11:54:56.063Z,6.30
2022-10-31T11:55:54.031Z,7.00
2022-10-31T11:56:54.027Z,6.00
2022-10-31T11:57:54.024Z,6.40
2022-10-31T11:58:54.007Z,7.10
2022-10-31T11:59:54.000Z,6.70
2022-10-31T12:00:54.469Z,6.80
2022-10-31T12:01:54.097Z,6.90
2022-10-31T12:02:54.068Z,6.50
2022-10-31T12:03:53.969Z,7.00
2022-10-31T12:04:53.969Z,7.00
2022-10-31T12:05:53.975Z,6.80
2022-10-31T12:06:53.940Z,6.60
2022-10-31T12:07:54.005Z,6.70
2022-10-31T12:08:53.931Z,7.00
2022-10-31T12:09:53.931Z,7.40
2022-10-31T12:10:53.955Z,6.60
2022-10-31T12:11:53.905Z,7.10
2022-10-31T12:12:53.897Z,7.00
2022-10-31T12:13:53.890Z,7.00
2022-10-31T12:14:53.890Z,7.20
2022-10-31T12:15:53.909Z,7.20
2022-10-31T12:16:53.875Z,7.10
2022-10-31T12:17:53.909Z,6.90
2022-10-31T12:18:53.863Z,7.50
2022-10-31T12:19:55.419Z,7.50
2022-10-31T12:20:54.880Z,7.80
2022-10-31T12:21:53.831Z,8.50
2022-10-31T12:22:53.824Z,7.40
2022-10-31T12:23:53.819Z,7.40
2022-10-31T12:24:53.834Z,7.10
2022-10-31T12:25:53.842Z,7.90
2022-10-31T12:26:53.811Z,8.20
2022-10-31T12:27:53.803Z,8.30
2022-10-31T12:28:55.448Z,8.20
2022-10-31T12:29:54.777Z,7.50
2022-10-31T12:30:53.834Z,7.10
2022-10-31T12:31:53.760Z,7.10
2022-10-31T12:32:53.751Z,7.50
2022-10-31T12:33:53.756Z,7.70
2022-10-31T12:34:53.746Z,7.10
2022-10-31T12:35:53.760Z,7.60
2022-10-31T12:36:53.813Z,6.80
2022-10-31T12:37:53.724Z,7.60
2022-10-31T12:38:53.716Z,7.60
2022-10-31T12:39:53.693Z,7.60
2022-10-31T12:40:53.734Z,7.70
2022-10-31T12:41:53.682Z,7.30
2022-10-31T12:42:53.676Z,8.00
2022-10-31T12:43:53.671Z,8.20
2022-10-31T12:44:53.666Z,8.10
2022-10-31T12:45:53.653Z,7.90
2022-10-31T12:46:53.671Z,7.70
2022-10-31T12:47:53.633Z,7.70
2022-10-31T12:48:57.171Z,8.10
2022-10-31T12:49:53.644Z,7.30
2022-10-31T12:50:53.666Z,7.20
2022-10-31T12:51:53.667Z,7.70
2022-10-31T12:52:53.612Z,7.30
2022-10-31T12:53:53.613Z,7.40
2022-10-31T12:54:53.590Z,7.40
2022-10-31T12:55:53.586Z,7.20
2022-10-31T12:56:53.591Z,7.60
2022-10-31T12:57:53.559Z,7.30
2022-10-31T12:58:53.550Z,7.60
2022-10-31T12:59:53.548Z,7.60
2022-10-31T13:00:53.615Z,7.50
2022-10-31T13:01:53.631Z,7.70
2022-10-31T13:02:53.522Z,7.20
2022-10-31T13:03:53.516Z,7.10
2022-10-31T13:04:53.500Z,7.20
2022-10-31T13:05:53.493Z,7.30
2022-10-31T13:06:53.516Z,8.20
2022-10-31T13:07:53.482Z,7.50
2022-10-31T13:08:53.516Z,7.60
2022-10-31T13:09:53.541Z,7.50
2022-10-31T13:10:53.570Z,7.10
2022-10-31T13:11:53.489Z,7.80
2022-10-31T13:12:53.449Z,7.70
2022-10-31T13:13:53.448Z,7.60
2022-10-31T13:14:53.434Z,7.70
2022-10-31T13:15:53.440Z,8.00
2022-10-31T13:16:53.447Z,8.10
2022-10-31T13:17:53.435Z,7.90
2022-10-31T13:18:53.408Z,7.40
2022-10-31T13:19:53.397Z,8.10